Etusivu
METAR-TAF:

METAR-TAF

Lentoasemat :

Gafsa, Tunisia

Leveyspiiri: 34-25N, Pituuspiiri: 008-49E, korkeus merenpinnasta: 313 m

Tämänhetkinen sää

Tämä raportti tehtiin 48 minuuttia sitten, kello 00.00 UTC
Tuuli 11 kn pohjoisesta/koillisesta
Lämpötila 24°C
Kosteus 31%
Ilmanpaine 1016 hPa
Näkyvyys: 8000 m
Muutamia pilviä 2600 ft:n korkeudessa

METAR: DTTF 180000Z 02011KT 8000 FEW026 24/06 Q1016

Aika: 01:48 (00:48 UTC)

Sääennuste

Tämä raportti tehtiin 3 tuntia ja 48 minuuttia sitten, kello 21.00 UTC
Ennuste voimassa 17. päivästä klo 22 UTC - 18. päivään klo 07 UTC
Tuuli 10 kn koillisesta
Näkyvyys: 8000 m
Hajanaisia pilviä 2600 ft:n korkeudessa
Ajoittain
18. päivästä klo 00 UTC - 18. päivään klo 06 UTC
Tuuli 17 kn koillisesta puuskistuen 27 kn:hen
Näkyvyys: 5000 m

TAF: DTTF 172100Z 1722/1807 04010KT 8000 SCT026 TEMPO 1800/1806 04017G27KT 5000 NSC

Säähavainnot ja -ennusteet yli 4000 lentoasemalta (METAR- ja TAF-raportit).

Käytössä olevat sääasemat on merkitty karttaan keltaisilla ja punaisilla pisteillä.

Aseta hiiri pisteen päälle nähdäksesi sääaseman nimen.

Klikkaa sitten nähdäksesi säähavainnot ja -ennusteet.

Kartan vaihtaminen: klikkaa mustalla rastilla varustettuja vihreitä pisteitä, niin voit zoomata sisään; viivalla varustettua vihreää pistettä, niin voit zoomata ulos tai vihreitä nuolia, niin pääset viereisille kartoille.


METAR-TAF: